Time;durP1;ratioP1;P1;durP2;ratioP2;P2;SDS_P1;SDS_P2;PMS_P1;PMS_P2;Temp;Humidity;BMP_temperature;BMP_pressure;BME280_temperature;BME280_humidity;BME280_pressure;Samples;Min_cycle;Max_cycle;Signal;HPM_P1;HPM_P2
2020/12/07 00:00:23;;;;;;;13.17;8.87;;;;;;;7.75;100.00;94749.47;5138622;27;20459;-85
2020/12/07 00:02:49;;;;;;;13.90;9.90;;;;;;;7.90;100.00;94747.47;5138001;27;20434;-84
2020/12/07 00:05:17;;;;;;;15.10;10.27;;;;;;;8.06;100.00;94753.19;5137632;27;20439;-85
2020/12/07 00:07:43;;;;;;;16.33;10.67;;;;;;;8.16;100.00;94741.09;5137581;27;20437;-85
2020/12/07 00:10:09;;;;;;;15.07;10.10;;;;;;;8.12;100.00;94747.50;5137580;27;20450;-85
2020/12/07 00:12:36;;;;;;;16.40;11.33;;;;;;;8.03;100.00;94743.78;5137661;27;20450;-85
2020/12/07 00:15:05;;;;;;;16.83;10.80;;;;;;;8.05;100.00;94749.72;5138095;27;20469;-85
2020/12/07 00:17:31;;;;;;;16.07;10.50;;;;;;;7.91;100.00;94749.97;5137908;27;20450;-85
2020/12/07 00:19:58;;;;;;;17.90;11.93;;;;;;;7.88;100.00;94742.38;5137388;27;20483;-84
2020/12/07 00:22:26;;;;;;;15.83;9.50;;;;;;;7.87;100.00;94742.50;5138197;27;20526;-84
2020/12/07 00:24:53;;;;;;;24.93;11.60;;;;;;;7.91;100.00;94739.53;5138732;27;20917;-85
2020/12/07 00:27:23;;;;;;;17.57;11.83;;;;;;;7.87;100.00;94743.31;5138833;27;20445;-84
2020/12/07 00:29:50;;;;;;;16.07;11.00;;;;;;;7.87;100.00;94750.34;5138360;27;20526;-84
2020/12/07 00:32:16;;;;;;;16.63;10.00;;;;;;;7.71;100.00;94737.59;5138365;27;20442;-85
2020/12/07 00:34:43;;;;;;;19.90;11.30;;;;;;;7.71;100.00;94732.38;5138012;27;20441;-85
2020/12/07 00:37:09;;;;;;;18.33;10.90;;;;;;;7.86;100.00;94738.22;5138131;27;20502;-85
2020/12/07 00:39:36;;;;;;;13.23;10.73;;;;;;;7.90;100.00;94737.03;5137676;27;20605;-85
2020/12/07 00:42:03;;;;;;;17.40;11.10;;;;;;;7.83;100.00;94731.47;5137847;27;20446;-85
2020/12/07 00:44:29;;;;;;;17.27;10.37;;;;;;;7.64;100.00;94721.56;5138043;27;20445;-85
2020/12/07 00:46:56;;;;;;;16.30;11.10;;;;;;;7.73;100.00;94725.25;5147767;27;20450;-84
2020/12/07 00:49:22;;;;;;;25.63;11.00;;;;;;;7.57;100.00;94722.16;5148086;27;20436;-85
2020/12/07 00:51:49;;;;;;;14.87;9.10;;;;;;;7.54;100.00;94719.78;5147755;27;20445;-84
2020/12/07 00:54:16;;;;;;;18.23;10.73;;;;;;;7.61;100.00;94710.53;5143812;27;20438;-85
2020/12/07 00:56:43;;;;;;;15.67;10.80;;;;;;;7.68;100.00;94703.88;5137078;27;20434;-85
2020/12/07 00:59:10;;;;;;;14.30;9.47;;;;;;;7.84;100.00;94700.94;5136732;27;20478;-84
2020/12/07 01:01:38;;;;;;;17.23;11.00;;;;;;;7.92;100.00;94694.16;5137300;27;20439;-85
2020/12/07 01:04:05;;;;;;;15.53;10.60;;;;;;;7.78;100.00;94690.00;5137266;27;20438;-84
2020/12/07 01:06:32;;;;;;;16.70;9.50;;;;;;;7.97;100.00;94689.41;5136906;27;20434;-85
2020/12/07 01:08:58;;;;;;;16.00;10.70;;;;;;;8.08;100.00;94689.38;5138645;27;20861;-84
2020/12/07 01:11:25;;;;;;;15.40;11.03;;;;;;;8.17;100.00;94698.31;5137354;27;20434;-84
2020/12/07 01:13:52;;;;;;;19.83;11.53;;;;;;;8.32;100.00;94706.72;5136314;27;20507;-85
2020/12/07 01:16:20;;;;;;;23.77;13.17;;;;;;;8.44;100.00;94707.59;5137084;27;20454;-85
2020/12/07 01:18:46;;;;;;;21.27;12.87;;;;;;;8.54;100.00;94706.72;5136726;27;20467;-84
2020/12/07 01:21:14;;;;;;;20.20;12.40;;;;;;;8.63;100.00;94703.34;5136475;27;20440;-84
2020/12/07 01:23:41;;;;;;;13.87;10.00;;;;;;;8.58;100.00;94691.59;5136262;27;20788;-84
2020/12/07 01:26:08;;;;;;;18.63;9.73;;;;;;;8.25;100.00;94676.78;5136202;27;20841;-85
2020/12/07 01:28:34;;;;;;;15.23;10.13;;;;;;;7.97;100.00;94671.13;5136169;27;20450;-84
2020/12/07 01:31:02;;;;;;;18.90;9.50;;;;;;;8.12;100.00;94676.13;5136594;27;20444;-84
2020/12/07 01:33:28;;;;;;;13.03;9.33;;;;;;;8.30;100.00;94677.25;5136404;27;20443;-84
2020/12/07 01:35:55;;;;;;;15.40;10.00;;;;;;;8.44;100.00;94674.41;5136355;27;20443;-84
2020/12/07 01:38:22;;;;;;;15.97;10.40;;;;;;;8.51;100.00;94672.13;5136554;27;20475;-84
2020/12/07 01:40:48;;;;;;;14.23;8.97;;;;;;;8.57;100.00;94669.84;5136183;27;20442;-84
2020/12/07 01:43:15;;;;;;;17.33;9.17;;;;;;;8.63;100.00;94658.91;5135839;27;20460;-85
2020/12/07 01:45:41;;;;;;;13.77;9.50;;;;;;;8.61;100.00;94660.81;5136434;27;20795;-84
2020/12/07 01:48:09;;;;;;;14.70;9.27;;;;;;;8.52;100.00;94658.94;5136296;27;20439;-85
2020/12/07 01:50:36;;;;;;;10.20;7.60;;;;;;;8.50;100.00;94668.69;5135807;27;20583;-84
2020/12/07 01:53:03;;;;;;;12.07;8.87;;;;;;;8.55;100.00;94666.53;5136311;27;20522;-84
2020/12/07 01:55:30;;;;;;;10.07;8.37;;;;;;;8.58;100.00;94666.28;5136136;27;20449;-84
2020/12/07 01:57:56;;;;;;;14.77;7.90;;;;;;;8.57;100.00;94664.63;5135418;27;20431;-84
2020/12/07 02:00:24;;;;;;;14.70;10.73;;;;;;;8.68;100.00;94669.00;5136052;27;20463;-84
2020/12/07 02:02:51;;;;;;;13.83;9.63;;;;;;;8.76;100.00;94671.00;5135706;27;20440;-85
2020/12/07 02:05:19;;;;;;;14.30;9.20;;;;;;;8.65;100.00;94661.38;5135586;27;20441;-84
2020/12/07 02:07:45;;;;;;;13.33;8.63;;;;;;;8.51;100.00;94646.81;5135766;27;20463;-85
2020/12/07 02:10:11;;;;;;;13.80;9.50;;;;;;;8.43;100.00;94659.69;5135372;27;20439;-84
2020/12/07 02:12:38;;;;;;;9.73;7.47;;;;;;;8.06;100.00;94654.72;5135616;27;20438;-85
2020/12/07 02:15:04;;;;;;;14.13;6.57;;;;;;;7.89;100.00;94663.06;5136188;27;20447;-85
2020/12/07 02:17:30;;;;;;;9.57;7.80;;;;;;;7.86;100.00;94662.47;5135242;27;20466;-85
2020/12/07 02:19:58;;;;;;;13.40;9.27;;;;;;;7.96;100.00;94656.41;5135372;27;20474;-85
2020/12/07 02:22:24;;;;;;;16.03;9.20;;;;;;;8.10;100.00;94665.78;5135801;27;20445;-85
2020/12/07 02:24:50;;;;;;;13.77;9.80;;;;;;;8.21;100.00;94673.59;5135277;27;20529;-84
2020/12/07 02:27:17;;;;;;;11.63;10.23;;;;;;;8.32;100.00;94670.94;5135386;27;20439;-84
2020/12/07 02:29:43;;;;;;;12.00;9.63;;;;;;;8.18;100.00;94659.94;5135431;27;20439;-84
2020/12/07 02:32:14;;;;;;;15.97;9.93;;;;;;;8.26;100.00;94665.38;5135327;27;20435;-84
2020/12/07 02:34:41;;;;;;;15.10;9.67;;;;;;;8.31;100.00;94658.84;5134880;27;20869;-85
2020/12/07 02:37:09;;;;;;;17.63;11.20;;;;;;;8.42;100.00;94657.19;5135475;27;20471;-84
2020/12/07 02:39:36;;;;;;;13.83;8.30;;;;;;;7.98;100.00;94646.66;5135393;27;20477;-84
2020/12/07 02:42:03;;;;;;;13.47;8.67;;;;;;;8.03;100.00;94646.28;5135260;28;20473;-84
2020/12/07 02:44:30;;;;;;;11.80;8.73;;;;;;;8.02;100.00;94645.47;5135098;28;20443;-84
2020/12/07 02:46:57;;;;;;;15.00;9.27;;;;;;;8.23;100.00;94652.56;5135075;28;20444;-85
2020/12/07 02:49:24;;;;;;;15.33;10.87;;;;;;;8.38;100.00;94643.50;5134965;28;20436;-85
2020/12/07 02:51:50;;;;;;;13.17;9.20;;;;;;;8.45;100.00;94643.88;5135502;28;20467;-84
2020/12/07 02:54:17;;;;;;;14.67;9.67;;;;;;;8.54;100.00;94636.09;5135101;28;20456;-84
2020/12/07 02:56:44;;;;;;;12.50;8.20;;;;;;;8.29;100.00;94639.00;5135089;28;20435;-84
2020/12/07 02:59:10;;;;;;;12.87;8.37;;;;;;;7.91;100.00;94645.47;5135167;28;20870;-85
2020/12/07 03:01:36;;;;;;;11.30;7.73;;;;;;;7.82;100.00;94651.44;5134820;28;20438;-84
2020/12/07 03:04:03;;;;;;;16.17;10.93;;;;;;;7.94;100.00;94658.28;5134995;28;20427;-84
2020/12/07 03:06:30;;;;;;;14.82;10.30;;;;;;;8.00;100.00;94660.44;5133894;28;20524;-84
2020/12/07 03:08:56;;;;;;;14.43;10.40;;;;;;;8.26;100.00;94675.84;5135045;28;20261;-84
2020/12/07 03:11:24;;;;;;;19.23;11.70;;;;;;;8.33;100.00;94675.25;5135107;28;20451;-85
2020/12/07 03:13:51;;;;;;;17.60;11.00;;;;;;;8.45;100.00;94670.03;5134846;28;20443;-85
2020/12/07 03:16:17;;;;;;;12.60;8.70;;;;;;;8.40;100.00;94646.88;5135351;28;20450;-85
2020/12/07 03:18:43;;;;;;;15.73;10.33;;;;;;;8.22;100.00;94638.66;5135005;27;20471;-84
2020/12/07 03:21:10;;;;;;;13.40;9.13;;;;;;;8.40;100.00;94633.78;5139021;27;20446;-85
2020/12/07 03:23:36;;;;;;;16.70;9.87;;;;;;;8.20;100.00;94640.56;5139023;27;20432;-86
2020/12/07 03:26:03;;;;;;;14.17;9.70;;;;;;;8.23;100.00;94640.31;5138901;27;20460;-85
2020/12/07 03:28:30;;;;;;;15.90;10.60;;;;;;;8.09;100.00;94643.19;5138562;27;20429;-85
2020/12/07 03:30:56;;;;;;;16.33;10.40;;;;;;;8.16;100.00;94636.53;5139064;27;20205;-85
2020/12/07 03:33:23;;;;;;;17.90;11.00;;;;;;;8.26;100.00;94649.69;5138563;27;20423;-84
2020/12/07 03:35:49;;;;;;;12.17;9.30;;;;;;;7.93;100.00;94648.81;5139247;27;20437;-84
2020/12/07 03:38:15;;;;;;;16.87;10.50;;;;;;;8.11;100.00;94653.53;5138435;27;20475;-84
2020/12/07 03:40:42;;;;;;;19.50;10.50;;;;;;;8.13;100.00;94659.47;5138057;27;20987;-85
2020/12/07 03:43:08;;;;;;;17.43;11.50;;;;;;;8.29;100.00;94670.38;5138632;27;20521;-85
2020/12/07 03:45:36;;;;;;;14.47;9.73;;;;;;;8.39;100.00;94671.34;5138948;27;20444;-85
2020/12/07 03:48:02;;;;;;;15.10;10.47;;;;;;;8.41;100.00;94668.59;5138004;27;20441;-84
2020/12/07 03:50:28;;;;;;;16.23;10.53;;;;;;;8.48;100.00;94661.94;5138550;27;20447;-85
2020/12/07 03:52:55;;;;;;;14.50;10.30;;;;;;;8.53;100.00;94657.16;5138390;27;20453;-85
2020/12/07 03:55:21;;;;;;;16.70;8.83;;;;;;;8.26;100.00;94647.09;5138178;27;20435;-85
2020/12/07 03:57:47;;;;;;;13.07;8.30;;;;;;;8.13;100.00;94641.19;5137824;27;20928;-84
2020/12/07 04:00:14;;;;;;;11.93;8.23;;;;;;;8.14;100.00;94640.22;5138313;27;20485;-86
2020/12/07 04:02:41;;;;;;;12.33;8.20;;;;;;;8.03;100.00;94647.13;5137825;27;20427;-84
2020/12/07 04:05:14;;;;;;;12.27;8.70;;;;;;;8.13;100.00;94643.78;5138179;27;20439;-84
2020/12/07 04:07:41;;;;;;;11.00;8.53;;;;;;;8.11;100.00;94640.47;5138078;27;20517;-85
2020/12/07 04:10:08;;;;;;;13.47;10.90;;;;;;;8.24;100.00;94647.22;5138139;27;20440;-85
2020/12/07 04:12:34;;;;;;;15.50;9.77;;;;;;;8.07;100.00;94645.09;5137972;27;20431;-85
2020/12/07 04:15:01;;;;;;;15.17;10.13;;;;;;;7.93;100.00;94635.75;5137756;27;20460;-84
2020/12/07 04:17:27;;;;;;;15.50;9.50;;;;;;;7.79;100.00;94643.81;5137729;27;20447;-85
2020/12/07 04:19:54;;;;;;;17.43;10.73;;;;;;;7.82;100.00;94650.59;5137864;27;20471;-84
2020/12/07 04:22:21;;;;;;;14.67;9.40;;;;;;;7.67;100.00;94652.59;5137847;27;20465;-86
2020/12/07 04:24:47;;;;;;;14.60;8.83;;;;;;;7.57;100.00;94636.00;5137870;27;20867;-85
2020/12/07 04:27:13;;;;;;;15.80;11.07;;;;;;;7.51;100.00;94636.44;5138233;27;20442;-85
2020/12/07 04:29:40;;;;;;;22.50;12.80;;;;;;;7.45;100.00;94633.34;5137427;27;20810;-84
2020/12/07 04:32:06;;;;;;;19.07;12.63;;;;;;;7.43;100.00;94634.44;5137473;27;20444;-85
2020/12/07 04:34:32;;;;;;;22.93;14.20;;;;;;;7.62;100.00;94639.06;5137621;27;20919;-85
2020/12/07 04:36:59;;;;;;;21.03;13.13;;;;;;;7.52;100.00;94648.53;5137330;27;20469;-85
2020/12/07 04:39:26;;;;;;;20.80;14.00;;;;;;;7.48;100.00;94634.91;5137764;27;20481;-84
2020/12/07 04:41:52;;;;;;;19.13;11.80;;;;;;;7.64;100.00;94638.00;5137450;27;20470;-84
2020/12/07 04:44:18;;;;;;;18.40;10.73;;;;;;;7.75;100.00;94631.94;5137708;27;20434;-85
2020/12/07 04:46:46;;;;;;;17.13;10.47;;;;;;;7.56;100.00;94629.13;5137498;27;20445;-85
2020/12/07 04:49:14;;;;;;;19.17;13.40;;;;;;;7.64;100.00;94635.41;5137239;27;20498;-85
2020/12/07 04:51:42;;;;;;;20.10;12.80;;;;;;;7.66;100.00;94636.09;5137353;27;20480;-85
2020/12/07 04:54:13;;;;;;;17.57;12.23;;;;;;;7.63;100.00;94641.56;5137437;27;20450;-86
2020/12/07 04:56:39;;;;;;;17.27;11.30;;;;;;;7.72;100.00;94633.00;5136848;27;20419;-85
2020/12/07 04:59:06;;;;;;;30.57;13.87;;;;;;;7.68;100.00;94635.97;5136998;27;20477;-85
2020/12/07 05:01:32;;;;;;;27.00;12.00;;;;;;;7.61;100.00;94635.63;5137176;27;20441;-85
2020/12/07 05:03:58;;;;;;;24.73;13.07;;;;;;;7.47;100.00;94641.91;5136798;27;20444;-85
2020/12/07 05:06:25;;;;;;;20.60;13.30;;;;;;;7.52;100.00;94627.66;5136705;27;20430;-85
2020/12/07 05:08:52;;;;;;;25.53;15.10;;;;;;;7.50;100.00;94624.34;5136934;27;20495;-85
2020/12/07 05:11:19;;;;;;;21.17;12.40;;;;;;;7.45;100.00;94620.31;5136997;27;20430;-85
2020/12/07 05:13:49;;;;;;;27.57;15.30;;;;;;;7.34;100.00;94628.13;5136815;27;20442;-85
2020/12/07 05:16:15;;;;;;;17.50;11.80;;;;;;;7.40;100.00;94629.44;5136726;27;20450;-85
2020/12/07 05:18:42;;;;;;;22.23;15.13;;;;;;;7.40;100.00;94619.00;5136597;27;20482;-85
2020/12/07 05:21:09;;;;;;;20.10;12.77;;;;;;;7.46;100.00;94624.56;5137129;27;20432;-86
2020/12/07 05:23:36;;;;;;;29.57;15.27;;;;;;;7.37;100.00;94630.50;5137470;27;20533;-85
2020/12/07 05:26:03;;;;;;;20.87;12.10;;;;;;;7.38;100.00;94621.72;5136337;27;20430;-85
2020/12/07 05:28:39;;;;;;;24.67;14.00;;;;;;;7.42;100.00;94620.53;5136559;27;20442;-85
2020/12/07 05:31:05;;;;;;;22.63;11.60;;;;;;;7.29;100.00;94629.44;5136372;27;20441;-85
2020/12/07 05:33:32;;;;;;;22.40;14.70;;;;;;;7.33;100.00;94629.09;5136492;27;20453;-84
2020/12/07 05:35:58;;;;;;;21.00;12.83;;;;;;;7.50;100.00;94632.16;5136588;27;20427;-85
2020/12/07 05:38:35;;;;;;;19.57;12.67;;;;;;;7.49;100.00;94630.50;5135955;27;20519;-84
2020/12/07 05:41:03;;;;;;;19.30;12.73;;;;;;;7.38;100.00;94631.34;5136364;27;20510;-84
2020/12/07 05:43:32;;;;;;;19.53;12.37;;;;;;;7.56;100.00;94623.88;5135578;27;20435;-85
2020/12/07 05:45:59;;;;;;;15.47;10.90;;;;;;;7.44;100.00;94615.22;5136763;27;20434;-84
2020/12/07 05:48:29;;;;;;;18.53;11.63;;;;;;;7.45;100.00;94620.31;5136209;27;20430;-86
2020/12/07 05:50:56;;;;;;;29.40;18.80;;;;;;;7.29;100.00;94622.44;5139583;27;20509;-85
2020/12/07 05:53:25;;;;;;;19.63;12.83;;;;;;;7.57;100.00;94630.78;5135902;27;20432;-85
2020/12/07 05:55:54;;;;;;;19.20;13.47;;;;;;;7.74;100.00;94632.88;5136253;27;20439;-85
2020/12/07 05:58:22;;;;;;;19.87;13.07;;;;;;;7.68;100.00;94631.59;5136314;27;20431;-85
2020/12/07 06:00:55;;;;;;;21.10;12.17;;;;;;;7.70;100.00;94629.69;5135742;27;20482;-84
2020/12/07 06:03:21;;;;;;;23.70;12.10;;;;;;;7.82;100.00;94634.94;5136273;27;20850;-85
2020/12/07 06:05:49;;;;;;;22.70;11.90;;;;;;;7.91;100.00;94634.19;5135987;27;20734;-85
2020/12/07 06:08:21;;;;;;;17.80;11.90;;;;;;;7.82;100.00;94640.16;5135361;27;20432;-85
2020/12/07 06:10:52;;;;;;;25.60;16.63;;;;;;;7.85;100.00;94626.84;5134948;27;20800;-85
2020/12/07 06:13:21;;;;;;;19.63;12.77;;;;;;;7.97;100.00;94618.88;5133874;27;20442;-85
2020/12/07 06:15:48;;;;;;;21.60;14.10;;;;;;;7.87;100.00;94617.94;5133784;27;20450;-85
2020/12/07 06:18:28;;;;;;;19.40;12.60;;;;;;;7.72;100.00;94619.94;5134008;27;20446;-86
2020/12/07 06:20:57;;;;;;;17.87;11.90;;;;;;;7.73;100.00;94620.78;5134489;27;20437;-84
2020/12/07 06:23:31;;;;;;;16.10;11.47;;;;;;;7.52;100.00;94612.00;5135569;27;20760;-85
2020/12/07 06:26:02;;;;;;;18.43;10.60;;;;;;;7.30;100.00;94613.66;5135593;27;20920;-84
2020/12/07 06:28:34;;;;;;;26.70;13.63;;;;;;;7.33;100.00;94616.03;5135282;27;20450;-84
2020/12/07 06:31:05;;;;;;;25.63;17.07;;;;;;;7.40;100.00;94616.41;5141056;27;20438;-83
2020/12/07 06:33:40;;;;;;;22.53;14.70;;;;;;;7.28;100.00;94612.13;5143955;27;20438;-85
2020/12/07 06:36:33;;;;;;;18.77;12.10;;;;;;;7.32;100.00;94606.56;5135331;27;20425;-85
2020/12/07 06:39:01;;;;;;;21.13;13.73;;;;;;;7.42;100.00;94604.88;5135691;27;20474;-83
2020/12/07 06:41:32;;;;;;;19.70;11.40;;;;;;;7.43;100.00;94601.31;5134559;28;20532;-84
2020/12/07 06:44:00;;;;;;;31.03;19.37;;;;;;;7.38;100.00;94610.47;5134113;28;20508;-83
2020/12/07 06:46:54;;;;;;;20.77;11.93;;;;;;;7.30;100.00;94602.41;5134357;28;20442;-86
2020/12/07 06:49:28;;;;;;;22.33;13.20;;;;;;;7.18;100.00;94598.09;5134366;28;20431;-85
2020/12/07 06:52:04;;;;;;;28.30;16.40;;;;;;;7.13;100.00;94598.44;5132023;28;20438;-85
2020/12/07 06:57:26;;;;;;;21.37;11.97;;;;;;;7.12;100.00;94596.78;5141081;27;20437;-91
2020/12/07 06:59:58;;;;;;;18.20;11.43;;;;;;;7.04;100.00;94591.34;5140650;27;20481;-86
2020/12/07 07:02:24;;;;;;;24.40;13.13;;;;;;;7.09;100.00;94590.03;5139914;27;20545;-82
2020/12/07 07:04:56;;;;;;;23.47;15.60;;;;;;;6.98;100.00;94592.63;5140133;27;21002;-82
2020/12/07 07:07:24;;;;;;;20.00;10.87;;;;;;;7.08;100.00;94590.16;5139614;27;20518;-87
2020/12/07 07:09:51;;;;;;;14.70;10.50;;;;;;;7.04;100.00;94580.91;5139711;27;20431;-84
2020/12/07 07:12:18;;;;;;;18.23;12.17;;;;;;;7.10;100.00;94596.06;5139850;27;20479;-82
2020/12/07 07:14:47;;;;;;;12.37;7.70;;;;;;;7.02;100.00;94588.84;5140655;27;20453;-85
2020/12/07 07:17:14;;;;;;;18.83;10.23;;;;;;;7.09;100.00;94578.75;5140600;27;20451;-85
2020/12/07 07:19:41;;;;;;;15.57;9.90;;;;;;;7.18;100.00;94587.66;5140096;27;20481;-84
2020/12/07 07:22:09;;;;;;;20.93;11.90;;;;;;;7.33;100.00;94584.72;5141699;27;20506;-85
2020/12/07 07:24:42;;;;;;;22.23;11.33;;;;;;;7.24;100.00;94585.44;5142878;27;20434;-86
2020/12/07 07:29:54;;;;;;;17.67;10.83;;;;;;;7.45;100.00;94591.59;5143626;27;20402;-84
2020/12/07 07:32:24;;;;;;;20.80;12.57;;;;;;;7.34;100.00;94589.00;5144356;27;20439;-89
2020/12/07 07:34:53;;;;;;;21.60;11.20;;;;;;;7.45;100.00;94601.19;5145961;27;20985;-89
2020/12/07 07:37:22;;;;;;;21.67;13.43;;;;;;;7.64;100.00;94598.00;5146221;27;20475;-89
2020/12/07 07:39:57;;;;;;;18.20;11.30;;;;;;;7.70;100.00;94594.91;5145903;27;20479;-91
2020/12/07 07:42:25;;;;;;;22.87;13.30;;;;;;;7.38;100.00;94589.56;5146147;27;20450;-86
2020/12/07 07:44:52;;;;;;;23.40;16.27;;;;;;;7.41;100.00;94578.91;5144579;27;20545;-86
2020/12/07 07:47:22;;;;;;;20.70;11.07;;;;;;;7.51;100.00;94579.00;5144689;27;20508;-87
2020/12/07 08:17:55;;;;;;;15.60;10.87;;;;;;;6.90;100.00;94592.34;5076558;28;20418;-90
2020/12/07 08:20:24;;;;;;;14.17;10.43;;;;;;;6.94;100.00;94595.56;5108666;28;20498;-90
2020/12/07 08:22:58;;;;;;;16.63;9.70;;;;;;;6.89;100.00;94597.69;5118750;28;20481;-93
2020/12/07 08:25:44;;;;;;;20.47;12.40;;;;;;;6.88;100.00;94585.59;5119096;28;20437;-90
2020/12/07 08:28:26;;;;;;;24.43;12.60;;;;;;;6.86;100.00;94585.72;5119095;28;20439;-90
2020/12/07 08:31:01;;;;;;;19.37;12.80;;;;;;;6.86;100.00;94592.72;5118786;28;20434;-91
2020/12/07 08:33:28;;;;;;;18.43;10.97;;;;;;;6.90;100.00;94588.91;5118484;28;20438;-89
2020/12/07 08:35:54;;;;;;;18.63;7.83;;;;;;;6.86;100.00;94590.09;5119331;28;20529;-91
2020/12/07 08:38:29;;;;;;;20.40;14.27;;;;;;;6.90;100.00;94588.91;5119126;28;20470;-90
2020/12/07 08:41:07;;;;;;;23.43;14.20;;;;;;;6.85;100.00;94599.69;5119388;28;20569;-89
2020/12/07 08:43:35;;;;;;;24.57;15.33;;;;;;;6.93;100.00;94601.72;5118840;28;20415;-90
2020/12/07 08:46:01;;;;;;;21.57;13.30;;;;;;;6.91;100.00;94595.78;5118822;28;20489;-89
2020/12/07 08:48:28;;;;;;;25.90;14.60;;;;;;;7.12;100.00;94591.56;5119047;28;20466;-91
2020/12/07 08:50:55;;;;;;;38.73;20.00;;;;;;;7.37;100.00;94593.97;5118596;28;20435;-91
2020/12/07 08:53:22;;;;;;;41.57;24.97;;;;;;;7.49;100.00;94593.97;5118228;28;20443;-90
2020/12/07 08:55:49;;;;;;;33.83;21.23;;;;;;;7.58;100.00;94585.44;5117292;28;20431;-90
2020/12/07 08:58:17;;;;;;;48.57;27.80;;;;;;;7.67;100.00;94580.31;5119084;28;20783;-92
2020/12/07 09:00:46;;;;;;;37.70;23.47;;;;;;;7.68;100.00;94581.16;5118690;28;20490;-83
2020/12/07 09:03:13;;;;;;;16.47;10.30;;;;;;;7.61;100.00;94574.75;5118932;28;20481;-90
2020/12/07 09:05:40;;;;;;;18.70;10.47;;;;;;;7.39;100.00;94555.53;5117861;28;20444;-87
2020/12/07 09:08:10;;;;;;;16.63;10.77;;;;;;;7.42;100.00;94550.06;5117679;28;20480;-85
2020/12/07 09:10:37;;;;;;;20.67;12.67;;;;;;;7.33;100.00;94550.78;5118120;28;20458;-85
2020/12/07 09:13:04;;;;;;;19.03;11.93;;;;;;;7.38;100.00;94553.88;5118110;28;20444;-88
2020/12/07 09:15:33;;;;;;;19.80;12.97;;;;;;;7.34;100.00;94551.63;5118176;28;20454;-89
2020/12/07 09:17:59;;;;;;;17.67;10.43;;;;;;;7.27;100.00;94550.44;5117145;28;20509;-88
2020/12/07 09:20:26;;;;;;;20.67;13.30;;;;;;;7.24;100.00;94546.28;5117861;28;20470;-88
2020/12/07 09:22:52;;;;;;;18.27;11.40;;;;;;;7.16;100.00;94546.03;5118307;28;20535;-88
2020/12/07 09:25:19;;;;;;;16.37;10.40;;;;;;;7.19;100.00;94543.19;5117969;28;20446;-90
2020/12/07 09:27:46;;;;;;;18.93;12.33;;;;;;;7.20;100.00;94533.56;5117091;28;20504;-83
2020/12/07 09:30:12;;;;;;;20.50;12.40;;;;;;;7.08;100.00;94536.19;5116894;28;20765;-86
2020/12/07 09:32:42;;;;;;;19.23;11.73;;;;;;;7.14;100.00;94534.88;5117408;28;20491;-89
2020/12/07 09:35:09;;;;;;;17.30;12.20;;;;;;;7.27;100.00;94537.41;5119663;28;20470;-88
2020/12/07 09:37:36;;;;;;;18.20;12.03;;;;;;;7.32;100.00;94530.88;5117480;28;20495;-86
2020/12/07 09:40:05;;;;;;;21.03;12.23;;;;;;;7.19;100.00;94516.25;5116845;28;20536;-87
2020/12/07 09:42:32;;;;;;;17.67;11.27;;;;;;;7.27;100.00;94522.56;5116039;28;20435;-86
2020/12/07 09:44:59;;;;;;;16.27;11.20;;;;;;;8.17;100.00;94525.81;5117018;28;20505;-88
2020/12/07 09:47:27;;;;;;;14.30;9.67;;;;;;;7.81;100.00;94523.56;5116248;28;20445;-86
2020/12/07 09:49:54;;;;;;;11.33;9.17;;;;;;;7.50;100.00;94532.97;5116482;28;20428;-88
2020/12/07 09:52:21;;;;;;;16.25;11.32;;;;;;;7.54;100.00;94519.56;5116324;28;20535;-89
2020/12/07 09:54:49;;;;;;;19.23;12.00;;;;;;;7.58;100.00;94515.78;5116865;28;20201;-87
2020/12/07 09:57:16;;;;;;;15.93;11.73;;;;;;;8.64;100.00;94511.47;5116540;28;20470;-86
2020/12/07 09:59:45;;;;;;;25.00;16.67;;;;;;;12.26;100.00;94510.22;5116315;28;20485;-87
2020/12/07 10:02:14;;;;;;;12.40;10.77;;;;;;;12.50;100.00;94505.19;5116458;28;20446;-86
2020/12/07 10:04:40;;;;;;;12.10;9.30;;;;;;;12.49;100.00;94500.06;5119658;28;20451;-86
2020/12/07 10:07:08;;;;;;;14.30;10.67;;;;;;;11.24;88.59;94499.78;5116386;28;20507;-87
2020/12/07 10:09:36;;;;;;;15.13;11.87;;;;;;;10.50;90.46;94499.66;5117147;28;20453;-87
2020/12/07 10:12:03;;;;;;;21.30;14.00;;;;;;;9.91;90.55;94501.41;5116587;28;20438;-88
2020/12/07 10:14:30;;;;;;;15.67;10.43;;;;;;;9.04;96.60;94487.19;5117061;28;20487;-87
2020/12/07 10:16:58;;;;;;;24.10;16.90;;;;;;;8.88;97.62;94489.44;5117230;28;20477;-87
2020/12/07 10:19:25;;;;;;;16.80;11.60;;;;;;;9.83;100.00;94482.91;5116556;28;20524;-90
2020/12/07 10:21:51;;;;;;;20.30;16.10;;;;;;;13.75;100.00;94483.75;5125817;27;20450;-87
2020/12/07 10:24:19;;;;;;;15.10;13.30;;;;;;;12.02;100.00;94481.84;5137484;27;20441;-85
2020/12/07 10:26:45;;;;;;;11.63;9.73;;;;;;;10.88;100.00;94469.91;5136069;27;20441;-85
2020/12/07 10:29:12;;;;;;;15.00;10.43;;;;;;;9.64;100.00;94472.38;5136858;27;20478;-88
2020/12/07 10:31:39;;;;;;;14.87;10.87;;;;;;;9.25;100.00;94460.94;5136030;27;20452;-84
2020/12/07 10:34:05;;;;;;;17.40;10.47;;;;;;;8.84;100.00;94456.66;5140061;27;20477;-84
2020/12/07 10:36:32;;;;;;;12.47;9.80;;;;;;;8.74;100.00;94456.63;5136055;27;20443;-85
2020/12/07 10:38:59;;;;;;;13.73;10.57;;;;;;;8.58;100.00;94457.06;5135586;27;20513;-84
2020/12/07 10:41:28;;;;;;;12.13;9.73;;;;;;;8.13;100.00;94453.03;5136699;27;20470;-85
2020/12/07 10:43:56;;;;;;;11.63;9.80;;;;;;;8.15;100.00;94456.34;5135663;28;20559;-83
2020/12/07 10:46:23;;;;;;;16.60;11.37;;;;;;;7.91;100.00;94464.41;5136703;28;20447;-85
2020/12/07 10:48:50;;;;;;;17.07;10.97;;;;;;;7.98;100.00;94458.53;5135358;28;20468;-82
2020/12/07 10:51:17;;;;;;;17.03;12.60;;;;;;;7.78;100.00;94446.25;5135722;28;20443;-86
2020/12/07 10:53:43;;;;;;;20.27;13.30;;;;;;;7.60;100.00;94450.38;5135696;28;20441;-84
2020/12/07 10:56:10;;;;;;;16.10;10.67;;;;;;;7.46;100.00;94449.69;5135504;28;21001;-86
2020/12/07 10:58:39;;;;;;;15.80;11.77;;;;;;;7.55;100.00;94442.09;5137009;28;20878;-84
2020/12/07 11:01:06;;;;;;;16.00;10.70;;;;;;;7.40;100.00;94444.94;5136456;28;20473;-90
2020/12/07 11:03:33;;;;;;;25.10;12.90;;;;;;;7.43;100.00;94441.25;5136487;28;20444;-90
2020/12/07 11:06:01;;;;;;;21.35;13.63;;;;;;;7.33;100.00;94435.97;5136606;28;20903;-85
2020/12/07 11:08:33;;;;;;;21.90;13.23;;;;;;;7.26;100.00;94429.56;5135274;28;20208;-87
2020/12/07 11:10:59;;;;;;;23.30;15.20;;;;;;;7.51;100.00;94424.97;5135936;28;20477;-86
2020/12/07 11:13:30;;;;;;;27.20;17.27;;;;;;;7.66;100.00;94415.94;5135213;28;20500;-86
2020/12/07 11:16:01;;;;;;;29.35;20.15;;;;;;;7.70;100.00;94433.00;5134874;28;20434;-83
2020/12/07 11:18:28;;;;;;;20.40;14.00;;;;;;;7.43;100.00;94429.03;5137123;28;20206;-87
2020/12/07 11:20:59;;;;;;;25.77;17.67;;;;;;;7.52;100.00;94437.06;5132051;28;20474;-86
2020/12/07 11:23:26;;;;;;;29.53;17.57;;;;;;;7.60;100.00;94440.75;5138295;28;20415;-88
2020/12/07 11:25:53;;;;;;;27.47;14.57;;;;;;;7.56;100.00;94430.69;5136159;28;20465;-90
2020/12/07 11:28:19;;;;;;;24.20;14.17;;;;;;;7.54;100.00;94433.41;5135993;28;20446;-87
2020/12/07 11:30:47;;;;;;;19.00;13.73;;;;;;;7.43;100.00;94425.59;5136995;28;20442;-84
2020/12/07 11:33:14;;;;;;;22.00;12.23;;;;;;;7.40;100.00;94421.47;5135800;28;20451;-86
2020/12/07 11:35:41;;;;;;;16.00;10.33;;;;;;;7.28;100.00;94411.19;5135842;28;20478;-86
2020/12/07 11:38:12;;;;;;;19.17;11.97;;;;;;;7.12;100.00;94409.78;5136694;28;20477;-89
2020/12/07 11:40:54;;;;;;;20.90;13.30;;;;;;;7.08;100.00;94410.13;5137660;27;20474;-85
2020/12/07 11:43:34;;;;;;;24.67;14.23;;;;;;;7.16;100.00;94410.34;5139621;27;20437;-93
2020/12/07 11:46:01;;;;;;;14.63;10.87;;;;;;;7.08;100.00;94403.16;5138670;27;20651;-83
2020/12/07 11:48:29;;;;;;;17.87;12.73;;;;;;;7.20;100.00;94403.94;5139227;27;20533;-83
2020/12/07 11:50:55;;;;;;;21.40;13.07;;;;;;;7.28;100.00;94401.56;5138594;27;20450;-85
2020/12/07 11:53:21;;;;;;;20.40;11.83;;;;;;;7.18;100.00;94399.78;5139104;27;20451;-84
2020/12/07 11:55:48;;;;;;;22.40;14.03;;;;;;;7.24;100.00;94402.78;5138656;27;20434;-83